METAR v bližini

 

LJLJ - Ljubljana/Brnik, Slovenia
Oddaljenost od postaje: W 41km
Podatki zajeti: 28/07/2021 09:00
Rahlo oblačno
Rahlo oblačno
 Veter iz smeri calm
Veter: Calm
Temperatura: 22°C
Rosišče: 16°C
Vlažnost: 69%
Tlak: 1016 hPa
Oblačnost: Rahlo oblačno
Vidljivost: 10 km
Podrobnosti o oblakih: Rahlo oblačno 1829 m
2021/07/28 07:00 LJLJ 280700Z 00000KT 9999 FEW060 22/16 Q1016 NOSIG
LJMB - Maribor, Slovenia
Oddaljenost od postaje: NE 63km
Podatki zajeti: 28/07/2021 09:00
Jasno
Jasno
 Veter iz smeri S
Veter: S 15 km/h
Temperatura: 26°C
Rosišče: 16°C
Vlažnost: 54%
Tlak: 1014 hPa
Stanje: Jasno
Vidljivost: večja od 10 km
2021/07/28 07:00 LJMB 280700Z 19008KT CAVOK 26/16 Q1014
 
LJPZ - Portoroz, Slovenia
Oddaljenost od postaje: SW 130km
Podatki zajeti: 28/07/2021 09:00
Jasno
Jasno
 Veter iz smeri calm
Veter: Calm
Temperatura: 25°C
Rosišče: 18°C
Vlažnost: 65%
Tlak: 1014 hPa
Stanje: Jasno
Vidljivost: večja od 10 km
2021/07/28 07:00 LJPZ 280700Z 00000KT CAVOK 25/18 Q1014
LJCE - Cerklje, Slovenia
Oddaljenost od postaje: ESE 49km
Podatki zajeti: 28/07/2021 09:00
Delno oblačno
Delno oblačno
 Veter iz smeri W
Veter: W 6 km/h
Temperatura: 24°C
Rosišče: 18°C
Vlažnost: 69%
Tlak: 1015 hPa
Oblačnost: Delno oblačno
Vidljivost: 10 km
2021/07/28 07:00 LJCE 280700Z AUTO 26003KT 9999 NSC 24/18 Q1015
 
LDZA - Zagreb/Pleso, Croatia
Oddaljenost od postaje: ESE 96km
Podatki zajeti: 28/07/2021 09:00
Jasno
Jasno
 Veter iz smeri WSW
Veter: WSW 6 km/h
Temperatura: 24°C
Rosišče: 19°C
Vlažnost: 74%
Tlak: 1014 hPa
Stanje: Jasno
Vidljivost: večja od 10 km
2021/07/28 07:00 LDZA 280700Z 24003KT 200V270 CAVOK 24/19 Q1014 NOSIG
LDRI - Rijeka/Omisalj, Croatia
Oddaljenost od postaje: SSW 109km
Podatki zajeti: 28/07/2021 09:00
Rahlo oblačno
Rahlo oblačno
 Veter iz smeri spremenljiv
Veter: spremenljiv 4 km/h
Temperatura: 27°C
Toplotni indeks: 28°C
Rosišče: 19°C
Vlažnost: 62%
Tlak: 1015 hPa
Oblačnost: Rahlo oblačno
Vidljivost: 10 km
Podrobnosti o oblakih: Rahlo oblačno 1524 m
2021/07/28 07:00 LDRI 280700Z VRB02KT 9999 FEW050 27/19 Q1015
 
LDPL - Pula, Croatia
Oddaljenost od postaje: SSW 164km
Podatki zajeti: 28/07/2021 09:00
Jasno
Jasno
 Veter iz smeri ESE
Veter: ESE 13 km/h
Temperatura: 26°C
Rosišče: 21°C
Vlažnost: 74%
Tlak: 1015 hPa
Stanje: Jasno
Vidljivost: večja od 10 km
2021/07/28 07:00 LDPL 280700Z 11007KT 090V150 CAVOK 26/21 Q1015 NOSIG
LOWK - Klagenfurt(Civ/M, Austria
Oddaljenost od postaje: NW 76km
Podatki zajeti: 28/07/2021 09:20
Rahlo oblačno
Rahlo oblačno
 Veter iz smeri N
Veter: N 6 km/h
Temperatura: 21°C
Rosišče: 16°C
Vlažnost: 73%
Tlak: 1016 hPa
Oblačnost: Rahlo oblačno
Vidljivost: 10 km
Podrobnosti o oblakih: Rahlo oblačno 457 m
2021/07/28 07:20 LOWK 280720Z 36003KT 310V080 9999 FEW015 21/16 Q1016 NOSIG
 
LOWG - Graz (mil/Civ), Austria
Oddaljenost od postaje: NNE 100km
Podatki zajeti: 28/07/2021 09:20
Rahlo oblačno
Rahlo oblačno
 Veter iz smeri spremenljiv
Veter: spremenljiv 4 km/h
Temperatura: 26°C
Rosišče: 15°C
Vlažnost: 51%
Tlak: 1014 hPa
Oblačnost: Rahlo oblačno
Vidljivost: 10 km
Podrobnosti o oblakih: Rahlo oblačno 1829 m
2021/07/28 07:20 LOWG 280720Z VRB02KT 9999 FEW060 26/15 Q1014 NOSIG
LOAN - Wr.neustadt East, Austria
Oddaljenost od postaje: NNE 212km
Podatki zajeti: 28/07/2021 09:00
Jasno
Jasno
 Veter iz smeri spremenljiv
Veter: spremenljiv 4 km/h
Stanje: Jasno
Vidljivost: večja od 10 km
2021/07/28 07:00 LOAN 280700Z VRB02KT CAVOK
 
LIPQ - Ronchi Legionari, Italy
Oddaljenost od postaje: SW 35km
Podatki zajeti: 28/07/2021 09:20
Rahlo oblačno
Rahlo oblačno
 Veter iz smeri spremenljiv
Veter: spremenljiv 4 km/h
Temperatura: 27°C
Toplotni indeks: 29°C
Rosišče: 20°C
Vlažnost: 66%
Tlak: 1014 hPa
Oblačnost: Rahlo oblačno
Vidljivost: 10 km
Podrobnosti o oblakih: Rahlo oblačno 3048 m
2021/07/28 07:20 LIPQ 280720Z AUTO VRB02KT 9999 FEW100/// 27/20 Q1014
LIVT - Trieste, Italy
Oddaljenost od postaje: WSW 109km
Podatki zajeti: 28/07/2021 08:55
Delno oblačno
Delno oblačno
 Veter iz smeri W
Veter: W 2 km/h
Temperatura: 26°C
Rosišče: 20°C
Vlažnost: 70%
Tlak: 1014 hPa
Oblačnost: Delno oblačno
Vidljivost: 10 km
Podrobnosti o oblakih: Delno oblačno 914 m
2021/07/28 06:55 LIVT 280655Z 26001KT 9999 SCT030 26/20 Q1014 RMK SCT QUK 0 QUL 0 VIS MAR 20 KM VIS MIN 9999
 
LIVO - Tarvisio, Italy
Oddaljenost od postaje: NNW 49km
Podatki zajeti: 28/07/2021 08:55
Rahlo oblačno
Rahlo oblačno
 Veter iz smeri calm
Veter: Calm
Temperatura: 17°C
Rosišče: 15°C
Vlažnost: 88%
Tlak: 1017 hPa
Oblačnost: Rahlo oblačno
Vidljivost: 10 km
Podrobnosti o oblakih: Rahlo oblačno 1524 m
2021/07/28 06:55 LIVO 280655Z 00000KT 9999 FEW050 17/15 Q1017 RMK FEW VIS MIN 9999
LIPZ - Venezia/Tessera, Italy
Oddaljenost od postaje: WSW 217km
Podatki zajeti: 28/07/2021 09:20
Jasno
Jasno
 Veter iz smeri N
Veter: N 7 km/h
Temperatura: 24°C
Rosišče: 18°C
Vlažnost: 69%
Tlak: 1014 hPa
Stanje: Jasno
Vidljivost: večja od 10 km
2021/07/28 07:20 LIPZ 280720Z 01004KT 340V050 CAVOK 24/18 Q1014 NOSIG
 
LHSM - Balaton, Hungary
Oddaljenost od postaje: ENE 177km
Podatki zajeti: 28/07/2021 08:45
Jasno
Jasno
 Veter iz smeri spremenljiv
Veter: spremenljiv 6 km/h
Temperatura: 26°C
Rosišče: 18°C
Vlažnost: 61%
Tlak: 1014 hPa
Oblačnost: Jasno
Vidljivost: 9 km
2021/07/28 06:45 LHSM 280645Z AUTO VRB03KT 9000 NCD 26/18 Q1014 NOSIG